createdAt,value
2022-11-20T00:00:22.789Z,1002.90
2022-11-20T00:01:22.784Z,1002.89
2022-11-20T00:02:22.820Z,1002.88
2022-11-20T00:03:22.739Z,1002.86
2022-11-20T00:04:22.967Z,1002.84
2022-11-20T00:05:22.757Z,1002.82
2022-11-20T00:06:22.726Z,1002.82
2022-11-20T00:07:22.783Z,1002.82
2022-11-20T00:08:22.693Z,1002.82
2022-11-20T00:09:23.169Z,1002.81
2022-11-20T00:10:22.682Z,1002.80
2022-11-20T00:11:22.679Z,1002.79
2022-11-20T00:12:22.646Z,1002.78
2022-11-20T00:13:22.629Z,1002.78
2022-11-20T00:14:22.629Z,1002.78
2022-11-20T00:15:22.636Z,1002.78
2022-11-20T00:16:22.676Z,1002.77
2022-11-20T00:17:22.598Z,1002.75
2022-11-20T00:18:22.596Z,1002.74
2022-11-20T00:19:22.980Z,1002.74
2022-11-20T00:20:22.582Z,1002.75
2022-11-20T00:21:22.617Z,1002.76
2022-11-20T00:22:22.637Z,1002.77
2022-11-20T00:23:22.555Z,1002.80
2022-11-20T00:24:22.544Z,1002.82
2022-11-20T00:25:22.933Z,1002.83
2022-11-20T00:26:23.509Z,1002.82
2022-11-20T00:27:22.520Z,1002.79
2022-11-20T00:28:22.509Z,1002.76
2022-11-20T00:29:22.708Z,1002.75
2022-11-20T00:30:22.482Z,1002.74
2022-11-20T00:31:22.472Z,1002.75
2022-11-20T00:32:22.444Z,1002.75
2022-11-20T00:33:22.501Z,1002.77
2022-11-20T00:34:22.457Z,1002.77
2022-11-20T00:35:22.447Z,1002.78
2022-11-20T00:36:22.446Z,1002.77
2022-11-20T00:37:22.431Z,1002.75
2022-11-20T00:38:22.425Z,1002.73
2022-11-20T00:39:22.748Z,1002.73
2022-11-20T00:40:22.459Z,1002.75
2022-11-20T00:41:22.393Z,1002.76
2022-11-20T00:42:22.400Z,1002.78
2022-11-20T00:43:22.337Z,1002.78
2022-11-20T00:44:22.331Z,1002.78
2022-11-20T00:45:22.330Z,1002.77
2022-11-20T00:46:22.352Z,1002.75
2022-11-20T00:47:23.114Z,1002.75
2022-11-20T00:48:22.352Z,1002.74
2022-11-20T00:49:22.680Z,1002.72
2022-11-20T00:50:22.266Z,1002.71
2022-11-20T00:51:22.261Z,1002.70
2022-11-20T00:52:22.227Z,1002.71
2022-11-20T00:53:22.287Z,1002.73
2022-11-20T00:54:22.223Z,1002.74
2022-11-20T00:55:22.222Z,1002.75
2022-11-20T00:56:22.231Z,1002.74
2022-11-20T00:57:23.130Z,1002.75
2022-11-20T00:58:22.201Z,1002.75
2022-11-20T00:59:22.561Z,1002.75
2022-11-20T01:00:22.237Z,1002.75
2022-11-20T01:01:22.397Z,1002.74
2022-11-20T01:02:22.241Z,1002.74
2022-11-20T01:03:26.850Z,1002.74
2022-11-20T01:04:22.233Z,1002.74
2022-11-20T01:05:22.120Z,1002.73
2022-11-20T01:06:22.108Z,1002.72
2022-11-20T01:07:22.198Z,1002.72
2022-11-20T01:08:22.122Z,1002.72
2022-11-20T01:09:22.342Z,1002.70
2022-11-20T01:10:22.089Z,1002.70
2022-11-20T01:11:22.058Z,1002.70
2022-11-20T01:12:22.109Z,1002.70
2022-11-20T01:13:25.677Z,1002.72
2022-11-20T01:14:22.051Z,1002.72
2022-11-20T01:15:22.079Z,1002.69
2022-11-20T01:16:22.076Z,1002.68
2022-11-20T01:17:22.038Z,1002.69
2022-11-20T01:18:22.308Z,1002.69
2022-11-20T01:19:22.347Z,1002.72
2022-11-20T01:20:21.975Z,1002.73
2022-11-20T01:21:21.974Z,1002.75
2022-11-20T01:22:21.959Z,1002.77
2022-11-20T01:23:21.945Z,1002.78
2022-11-20T01:24:22.013Z,1002.80
2022-11-20T01:25:21.933Z,1002.80
2022-11-20T01:26:21.984Z,1002.81
2022-11-20T01:27:21.918Z,1002.81
2022-11-20T01:28:21.907Z,1002.82
2022-11-20T01:29:22.223Z,1002.83
2022-11-20T01:30:21.882Z,1002.81
2022-11-20T01:31:21.873Z,1002.78
2022-11-20T01:32:21.897Z,1002.75
2022-11-20T01:33:21.982Z,1002.71
2022-11-20T01:34:21.887Z,1002.69
2022-11-20T01:35:21.823Z,1002.69
2022-11-20T01:36:21.871Z,1002.70
2022-11-20T01:37:22.466Z,1002.71
2022-11-20T01:38:21.803Z,1002.71
2022-11-20T01:39:22.141Z,1002.70
2022-11-20T01:40:21.807Z,1002.68
2022-11-20T01:41:21.784Z,1002.64
2022-11-20T01:42:21.827Z,1002.63
2022-11-20T01:43:21.772Z,1002.63
2022-11-20T01:44:21.796Z,1002.64
2022-11-20T01:45:22.009Z,1002.65
2022-11-20T01:46:21.740Z,1002.65
2022-11-20T01:47:21.723Z,1002.65
2022-11-20T01:48:21.779Z,1002.66
2022-11-20T01:49:21.951Z,1002.66
2022-11-20T01:50:21.673Z,1002.65
2022-11-20T01:51:21.694Z,1002.64
2022-11-20T01:52:21.765Z,1002.61
2022-11-20T01:53:21.655Z,1002.59
2022-11-20T01:54:21.640Z,1002.57
2022-11-20T01:55:22.583Z,1002.56
2022-11-20T01:56:21.648Z,1002.57
2022-11-20T01:57:21.926Z,1002.57
2022-11-20T01:58:21.613Z,1002.56
2022-11-20T01:59:21.986Z,1002.54
2022-11-20T02:00:21.589Z,1002.54
2022-11-20T02:01:21.589Z,1002.52
2022-11-20T02:02:21.898Z,1002.51
2022-11-20T02:03:21.622Z,1002.48
2022-11-20T02:04:21.565Z,1002.46
2022-11-20T02:05:21.571Z,1002.45
2022-11-20T02:06:21.701Z,1002.45
2022-11-20T02:07:21.554Z,1002.45
2022-11-20T02:08:21.509Z,1002.45
2022-11-20T02:09:21.783Z,1002.45
2022-11-20T02:10:21.519Z,1002.46
2022-11-20T02:11:21.478Z,1002.47
2022-11-20T02:12:21.497Z,1002.48
2022-11-20T02:13:21.444Z,1002.46
2022-11-20T02:14:23.330Z,1002.43
2022-11-20T02:15:24.109Z,1002.41
2022-11-20T02:16:21.586Z,1002.40
2022-11-20T02:17:21.415Z,1002.41
2022-11-20T02:18:21.427Z,1002.43
2022-11-20T02:19:21.679Z,1002.44
2022-11-20T02:20:21.392Z,1002.45
2022-11-20T02:21:21.375Z,1002.45
2022-11-20T02:22:21.387Z,1002.44
2022-11-20T02:23:21.339Z,1002.44
2022-11-20T02:24:21.379Z,1002.43
2022-11-20T02:25:21.461Z,1002.42
2022-11-20T02:26:21.653Z,1002.41
2022-11-20T02:27:21.400Z,1002.40
2022-11-20T02:28:21.392Z,1002.39
2022-11-20T02:29:21.418Z,1002.38
2022-11-20T02:30:21.306Z,1002.36
2022-11-20T02:31:21.281Z,1002.34
2022-11-20T02:32:21.338Z,1002.34
2022-11-20T02:33:21.235Z,1002.33
2022-11-20T02:34:21.256Z,1002.32
2022-11-20T02:35:21.246Z,1002.28
2022-11-20T02:36:21.224Z,1002.24
2022-11-20T02:37:21.229Z,1002.20
2022-11-20T02:38:21.208Z,1002.17
2022-11-20T02:39:21.613Z,1002.16
2022-11-20T02:40:21.197Z,1002.16
2022-11-20T02:41:21.161Z,1002.15
2022-11-20T02:42:21.190Z,1002.13
2022-11-20T02:43:21.201Z,1002.12
2022-11-20T02:44:21.162Z,1002.16
2022-11-20T02:45:21.124Z,1002.22
2022-11-20T02:46:21.405Z,1002.26
2022-11-20T02:47:21.102Z,1002.29
2022-11-20T02:48:21.178Z,1002.31
2022-11-20T02:49:21.499Z,1002.33
2022-11-20T02:50:21.102Z,1002.35
2022-11-20T02:51:21.059Z,1002.35
2022-11-20T02:52:21.113Z,1002.37
2022-11-20T02:53:21.078Z,1002.36
2022-11-20T02:54:21.032Z,1002.35
2022-11-20T02:55:21.045Z,1002.33
2022-11-20T02:56:21.031Z,1002.33
2022-11-20T02:57:20.950Z,1002.34
2022-11-20T02:58:21.069Z,1002.34
2022-11-20T02:59:21.296Z,1002.34
2022-11-20T03:00:20.987Z,1002.35
2022-11-20T03:01:21.005Z,1002.34
2022-11-20T03:02:21.025Z,1002.34
2022-11-20T03:03:20.981Z,1002.34
2022-11-20T03:04:20.987Z,1002.35
2022-11-20T03:05:20.950Z,1002.35
2022-11-20T03:06:20.937Z,1002.31
2022-11-20T03:07:20.944Z,1002.28
2022-11-20T03:08:20.929Z,1002.30
2022-11-20T03:09:21.416Z,1002.35
2022-11-20T03:10:20.890Z,1002.36
2022-11-20T03:11:20.878Z,1002.34
2022-11-20T03:12:20.871Z,1002.31
2022-11-20T03:13:20.866Z,1002.31
2022-11-20T03:14:20.870Z,1002.32
2022-11-20T03:15:20.820Z,1002.33
2022-11-20T03:16:20.826Z,1002.33
2022-11-20T03:17:20.800Z,1002.32
2022-11-20T03:18:20.843Z,1002.31
2022-11-20T03:19:21.306Z,1002.32
2022-11-20T03:20:20.826Z,1002.32
2022-11-20T03:21:20.782Z,1002.30
2022-11-20T03:22:20.783Z,1002.27
2022-11-20T03:23:20.769Z,1002.24
2022-11-20T03:24:20.727Z,1002.21
2022-11-20T03:25:20.721Z,1002.20
2022-11-20T03:26:20.717Z,1002.19
2022-11-20T03:27:20.752Z,1002.17
2022-11-20T03:28:20.719Z,1002.14
2022-11-20T03:29:21.050Z,1002.08
2022-11-20T03:30:20.702Z,1002.00
2022-11-20T03:31:20.692Z,1001.93
2022-11-20T03:32:20.650Z,1001.95
2022-11-20T03:33:20.672Z,1002.08
2022-11-20T03:34:20.642Z,1002.25
2022-11-20T03:35:20.671Z,1002.35
2022-11-20T03:36:20.627Z,1002.40
2022-11-20T03:37:20.653Z,1002.38
2022-11-20T03:38:20.594Z,1002.33
2022-11-20T03:39:20.880Z,1002.29
2022-11-20T03:40:20.599Z,1002.27
2022-11-20T03:41:20.579Z,1002.25
2022-11-20T03:42:20.592Z,1002.24
2022-11-20T03:43:20.540Z,1002.25
2022-11-20T03:44:20.538Z,1002.25
2022-11-20T03:45:20.534Z,1002.21
2022-11-20T03:46:20.521Z,1002.16
2022-11-20T03:47:20.544Z,1002.14
2022-11-20T03:48:20.511Z,1002.15
2022-11-20T03:49:20.731Z,1002.17
2022-11-20T03:50:20.476Z,1002.20
2022-11-20T03:51:20.516Z,1002.21
2022-11-20T03:52:20.463Z,1002.19
2022-11-20T03:53:20.458Z,1002.15
2022-11-20T03:54:20.436Z,1002.12
2022-11-20T03:55:20.433Z,1002.12
2022-11-20T03:56:20.434Z,1002.12
2022-11-20T03:57:20.414Z,1002.12
2022-11-20T03:58:20.407Z,1002.11
2022-11-20T03:59:20.687Z,1002.12
2022-11-20T04:00:20.374Z,1002.12
2022-11-20T04:01:20.430Z,1002.10
2022-11-20T04:02:20.394Z,1002.06
2022-11-20T04:03:20.358Z,1002.01
2022-11-20T04:04:20.349Z,1001.98
2022-11-20T04:05:20.326Z,1001.98
2022-11-20T04:06:20.312Z,1001.99
2022-11-20T04:07:20.411Z,1001.99
2022-11-20T04:08:20.307Z,1002.01
2022-11-20T04:09:20.556Z,1002.02
2022-11-20T04:10:20.308Z,1002.03
2022-11-20T04:11:20.281Z,1002.02
2022-11-20T04:12:20.264Z,1001.99
2022-11-20T04:13:20.293Z,1001.94
2022-11-20T04:14:20.233Z,1001.93
2022-11-20T04:15:20.223Z,1001.95
2022-11-20T04:16:20.155Z,1001.98
2022-11-20T04:17:20.255Z,1001.99
2022-11-20T04:18:20.233Z,1001.93
2022-11-20T04:19:20.704Z,1001.89
2022-11-20T04:20:20.244Z,1001.88
2022-11-20T04:21:20.171Z,1001.89
2022-11-20T04:22:20.202Z,1001.91
2022-11-20T04:23:22.380Z,1001.91
2022-11-20T04:24:20.157Z,1001.88
2022-11-20T04:25:20.127Z,1001.86
2022-11-20T04:26:20.117Z,1001.88
2022-11-20T04:27:20.118Z,1001.92
2022-11-20T04:28:20.097Z,1001.97
2022-11-20T04:29:20.433Z,1001.99
2022-11-20T04:30:20.081Z,1002.00
2022-11-20T04:31:20.093Z,1002.00
2022-11-20T04:32:20.076Z,1001.99
2022-11-20T04:33:20.028Z,1002.00
2022-11-20T04:34:20.051Z,1002.02
2022-11-20T04:35:20.075Z,1002.03
2022-11-20T04:36:20.020Z,1002.04
2022-11-20T04:37:20.069Z,1002.08
2022-11-20T04:38:20.044Z,1002.11
2022-11-20T04:39:20.451Z,1002.12
2022-11-20T04:40:20.043Z,1002.12
2022-11-20T04:41:21.782Z,1002.12
2022-11-20T04:42:19.988Z,1002.12
2022-11-20T04:43:19.950Z,1002.11
2022-11-20T04:44:19.931Z,1002.09
2022-11-20T04:45:19.943Z,1002.05
2022-11-20T04:46:19.976Z,1002.02
2022-11-20T04:47:19.918Z,1001.99
2022-11-20T04:48:19.900Z,1001.95
2022-11-20T04:49:20.272Z,1001.91
2022-11-20T04:50:19.932Z,1001.89
2022-11-20T04:51:19.904Z,1001.88
2022-11-20T04:52:19.873Z,1001.89
2022-11-20T04:53:19.949Z,1001.91
2022-11-20T04:54:19.871Z,1001.92
2022-11-20T04:55:19.870Z,1001.93
2022-11-20T04:56:19.815Z,1001.94
2022-11-20T04:57:19.861Z,1001.92
2022-11-20T04:58:19.811Z,1001.88
2022-11-20T04:59:20.223Z,1001.87
2022-11-20T05:00:19.781Z,1001.87
2022-11-20T05:01:19.910Z,1001.87
2022-11-20T05:02:19.787Z,1001.88
2022-11-20T05:03:19.759Z,1001.90
2022-11-20T05:04:19.759Z,1001.91
2022-11-20T05:05:19.751Z,1001.91
2022-11-20T05:06:19.730Z,1001.91
2022-11-20T05:07:19.795Z,1001.92
2022-11-20T05:08:19.743Z,1001.91
2022-11-20T05:09:20.008Z,1001.89
2022-11-20T05:10:19.706Z,1001.89
2022-11-20T05:11:19.751Z,1001.87
2022-11-20T05:12:19.663Z,1001.83
2022-11-20T05:13:19.672Z,1001.83
2022-11-20T05:14:19.674Z,1001.87
2022-11-20T05:15:19.669Z,1001.90
2022-11-20T05:16:19.699Z,1001.93
2022-11-20T05:17:19.646Z,1001.92
2022-11-20T05:18:19.608Z,1001.92
2022-11-20T05:19:20.045Z,1001.91
2022-11-20T05:20:19.599Z,1001.89
2022-11-20T05:21:19.575Z,1001.88
2022-11-20T05:22:19.613Z,1001.87
2022-11-20T05:23:19.582Z,1001.88
2022-11-20T05:24:19.547Z,1001.88
2022-11-20T05:25:19.590Z,1001.87
2022-11-20T05:26:19.532Z,1001.84
2022-11-20T05:27:19.572Z,1001.82
2022-11-20T05:28:19.553Z,1001.83
2022-11-20T05:29:19.851Z,1001.85
2022-11-20T05:30:19.529Z,1001.85
2022-11-20T05:31:25.047Z,1001.84
2022-11-20T05:32:19.492Z,1001.84
2022-11-20T05:33:19.790Z,1001.85
2022-11-20T05:34:19.467Z,1001.88
2022-11-20T05:35:19.504Z,1001.90
2022-11-20T05:36:19.413Z,1001.90
2022-11-20T05:37:19.430Z,1001.90
2022-11-20T05:38:19.433Z,1001.89
2022-11-20T05:39:19.729Z,1001.88
2022-11-20T05:40:19.402Z,1001.89
2022-11-20T05:41:19.398Z,1001.88
2022-11-20T05:42:19.388Z,1001.85
2022-11-20T05:43:19.390Z,1001.84
2022-11-20T05:44:19.347Z,1001.84
2022-11-20T05:45:19.377Z,1001.86
2022-11-20T05:46:22.321Z,1001.86
2022-11-20T05:47:19.340Z,1001.85
2022-11-20T05:48:19.327Z,1001.85
2022-11-20T05:49:19.532Z,1001.85
2022-11-20T05:50:19.308Z,1001.83
2022-11-20T05:51:19.313Z,1001.82
2022-11-20T05:52:19.315Z,1001.81
2022-11-20T05:53:19.269Z,1001.80
2022-11-20T05:54:19.329Z,1001.79
2022-11-20T05:55:19.243Z,1001.78
2022-11-20T05:56:19.246Z,1001.77
2022-11-20T05:57:19.233Z,1001.77
2022-11-20T05:58:19.211Z,1001.77
2022-11-20T05:59:19.389Z,1001.80
2022-11-20T06:00:19.196Z,1001.83
2022-11-20T06:01:19.198Z,1001.84
2022-11-20T06:02:19.289Z,1001.84
2022-11-20T06:03:19.190Z,1001.83
2022-11-20T06:04:19.160Z,1001.80
2022-11-20T06:05:19.143Z,1001.78
2022-11-20T06:06:19.138Z,1001.75
2022-11-20T06:07:19.235Z,1001.71
2022-11-20T06:08:19.108Z,1001.70
2022-11-20T06:09:19.471Z,1001.73
2022-11-20T06:10:19.106Z,1001.77
2022-11-20T06:11:19.142Z,1001.76
2022-11-20T06:12:19.088Z,1001.72
2022-11-20T06:13:19.153Z,1001.69
2022-11-20T06:14:19.072Z,1001.67
2022-11-20T06:15:19.064Z,1001.66
2022-11-20T06:16:19.053Z,1001.65
2022-11-20T06:17:19.061Z,1001.65
2022-11-20T06:18:19.029Z,1001.63
2022-11-20T06:19:19.197Z,1001.62
2022-11-20T06:20:19.030Z,1001.62
2022-11-20T06:21:19.030Z,1001.63
2022-11-20T06:22:18.993Z,1001.64
2022-11-20T06:23:18.967Z,1001.63
2022-11-20T06:24:18.950Z,1001.64
2022-11-20T06:25:18.911Z,1001.66
2022-11-20T06:26:18.903Z,1001.67
2022-11-20T06:27:18.877Z,1001.68
2022-11-20T06:28:18.910Z,1001.67
2022-11-20T06:29:19.065Z,1001.67
2022-11-20T06:30:18.923Z,1001.64
2022-11-20T06:31:18.972Z,1001.61
2022-11-20T06:32:18.863Z,1001.61
2022-11-20T06:33:18.876Z,1001.60
2022-11-20T06:34:18.849Z,1001.63
2022-11-20T06:35:18.866Z,1001.65
2022-11-20T06:36:18.791Z,1001.65
2022-11-20T06:37:18.811Z,1001.64
2022-11-20T06:38:18.782Z,1001.63
2022-11-20T06:39:18.967Z,1001.61
2022-11-20T06:40:18.771Z,1001.63
2022-11-20T06:41:18.743Z,1001.67
2022-11-20T06:42:18.712Z,1001.69
2022-11-20T06:43:18.745Z,1001.70
2022-11-20T06:44:18.690Z,1001.73
2022-11-20T06:45:18.698Z,1001.75
2022-11-20T06:46:18.692Z,1001.74
2022-11-20T06:47:18.676Z,1001.74
2022-11-20T06:48:18.693Z,1001.77
2022-11-20T06:49:18.791Z,1001.76
2022-11-20T06:50:18.627Z,1001.72
2022-11-20T06:51:18.619Z,1001.73
2022-11-20T06:52:18.619Z,1001.75
2022-11-20T06:53:18.612Z,1001.75
2022-11-20T06:54:18.664Z,1001.76
2022-11-20T06:55:18.619Z,1001.80
2022-11-20T06:56:18.568Z,1001.78
2022-11-20T06:57:18.576Z,1001.74
2022-11-20T06:58:18.613Z,1001.73
2022-11-20T06:59:18.583Z,1001.73
2022-11-20T07:00:18.547Z,1001.72
2022-11-20T07:01:18.674Z,1001.69
2022-11-20T07:02:18.525Z,1001.71
2022-11-20T07:03:18.522Z,1001.76
2022-11-20T07:04:18.574Z,1001.79
2022-11-20T07:05:18.519Z,1001.82
2022-11-20T07:06:18.481Z,1001.85
2022-11-20T07:07:18.571Z,1001.88
2022-11-20T07:08:18.504Z,1001.92
2022-11-20T07:09:18.474Z,1001.94
2022-11-20T07:10:18.492Z,1001.95
2022-11-20T07:11:18.475Z,1001.92
2022-11-20T07:12:18.458Z,1001.91
2022-11-20T07:13:18.436Z,1001.92
2022-11-20T07:14:18.450Z,1001.91
2022-11-20T07:15:18.400Z,1001.91
2022-11-20T07:16:18.375Z,1001.90
2022-11-20T07:17:18.387Z,1001.90
2022-11-20T07:18:18.394Z,1001.90
2022-11-20T07:19:18.449Z,1001.93
2022-11-20T07:20:18.361Z,1001.96
2022-11-20T07:21:18.343Z,1001.96
2022-11-20T07:22:18.328Z,1001.95
2022-11-20T07:23:18.333Z,1001.96
2022-11-20T07:24:18.359Z,1001.98
2022-11-20T07:25:18.350Z,1001.99
2022-11-20T07:26:18.298Z,1002.00
2022-11-20T07:27:18.267Z,1002.01
2022-11-20T07:28:18.283Z,1002.03
2022-11-20T07:29:18.326Z,1002.05
2022-11-20T07:30:18.234Z,1002.04
2022-11-20T07:31:19.587Z,1002.02
2022-11-20T07:32:18.228Z,1002.01
2022-11-20T07:33:18.234Z,1002.01
2022-11-20T07:34:18.203Z,1002.01
2022-11-20T07:35:18.208Z,1002.01
2022-11-20T07:36:18.208Z,1002.01
2022-11-20T07:37:18.177Z,1002.01
2022-11-20T07:38:18.191Z,1002.02
2022-11-20T07:39:18.279Z,1002.01
2022-11-20T07:40:18.137Z,1001.98
2022-11-20T07:41:18.169Z,1001.96
2022-11-20T07:42:18.154Z,1001.94
2022-11-20T07:43:18.114Z,1001.94
2022-11-20T07:44:18.143Z,1001.95
2022-11-20T07:45:18.104Z,1001.97
2022-11-20T07:46:18.089Z,1001.99
2022-11-20T07:47:18.083Z,1002.00
2022-11-20T07:48:18.069Z,1002.01
2022-11-20T07:49:18.082Z,1002.01
2022-11-20T07:50:18.087Z,1002.02
2022-11-20T07:51:18.044Z,1002.03
2022-11-20T07:52:18.021Z,1002.03
2022-11-20T07:53:18.065Z,1002.04
2022-11-20T07:54:18.012Z,1002.05
2022-11-20T07:55:18.050Z,1002.04
2022-11-20T07:56:18.002Z,1002.04
2022-11-20T07:57:18.009Z,1002.07
2022-11-20T07:58:18.038Z,1002.12
2022-11-20T07:59:17.975Z,1002.16
2022-11-20T08:00:17.973Z,1002.17
2022-11-20T08:01:18.061Z,1002.17
2022-11-20T08:02:17.925Z,1002.17
2022-11-20T08:03:21.867Z,1002.16
2022-11-20T08:04:18.229Z,1002.13
2022-11-20T08:05:17.900Z,1002.11
2022-11-20T08:06:18.002Z,1002.08
2022-11-20T08:07:17.928Z,1002.06
2022-11-20T08:08:18.152Z,1002.06
2022-11-20T08:09:17.969Z,1002.09
2022-11-20T08:10:17.852Z,1002.11
2022-11-20T08:11:17.833Z,1002.14
2022-11-20T08:12:17.891Z,1002.19
2022-11-20T08:13:17.840Z,1002.20
2022-11-20T08:14:17.820Z,1002.21
2022-11-20T08:15:17.792Z,1002.20
2022-11-20T08:16:17.792Z,1002.18
2022-11-20T08:17:17.826Z,1002.18
2022-11-20T08:18:33.446Z,1002.18
2022-11-20T08:19:17.786Z,1002.18
2022-11-20T08:20:17.777Z,1002.16
2022-11-20T08:21:18.122Z,1002.15
2022-11-20T08:22:17.779Z,1002.15
2022-11-20T08:23:17.747Z,1002.18
2022-11-20T08:24:17.727Z,1002.20
2022-11-20T08:25:17.724Z,1002.23
2022-11-20T08:26:17.718Z,1002.26
2022-11-20T08:27:17.720Z,1002.29
2022-11-20T08:28:21.307Z,1002.28
2022-11-20T08:29:17.699Z,1002.29
2022-11-20T08:30:17.731Z,1002.31
2022-11-20T08:31:17.705Z,1002.31
2022-11-20T08:32:17.956Z,1002.29
2022-11-20T08:33:17.924Z,1002.31
2022-11-20T08:34:19.171Z,1002.34
2022-11-20T08:35:17.658Z,1002.37
2022-11-20T08:36:17.671Z,1002.37
2022-11-20T08:37:17.623Z,1002.37
2022-11-20T08:38:17.633Z,1002.38
2022-11-20T08:39:17.596Z,1002.38
2022-11-20T08:40:19.755Z,1002.38
2022-11-20T08:41:17.625Z,1002.39
2022-11-20T08:42:17.605Z,1002.37
2022-11-20T08:43:17.534Z,1002.35
2022-11-20T08:44:17.543Z,1002.35
2022-11-20T08:45:17.561Z,1002.34
2022-11-20T08:46:17.535Z,1002.32
2022-11-20T08:47:17.545Z,1002.32
2022-11-20T08:48:17.495Z,1002.31
2022-11-20T08:49:17.563Z,1002.31
2022-11-20T08:50:17.505Z,1002.32
2022-11-20T08:51:17.492Z,1002.32
2022-11-20T08:52:17.509Z,1002.34
2022-11-20T08:53:17.483Z,1002.34
2022-11-20T08:54:17.451Z,1002.39
2022-11-20T08:55:17.397Z,1002.41
2022-11-20T08:56:17.643Z,1002.43
2022-11-20T08:57:17.415Z,1002.47
2022-11-20T08:58:17.417Z,1002.49
2022-11-20T08:59:27.346Z,1002.49
2022-11-20T09:00:17.453Z,1002.47
2022-11-20T09:01:17.730Z,1002.48
2022-11-20T09:02:17.395Z,1002.48
2022-11-20T09:03:18.077Z,1002.47
2022-11-20T09:04:17.343Z,1002.45
2022-11-20T09:05:17.312Z,1002.44
2022-11-20T09:06:17.301Z,1002.44
2022-11-20T09:07:17.437Z,1002.45
2022-11-20T09:08:17.292Z,1002.46
2022-11-20T09:09:17.259Z,1002.46
2022-11-20T09:10:24.130Z,1002.46
2022-11-20T09:11:17.278Z,1002.47
2022-11-20T09:12:17.256Z,1002.48
2022-11-20T09:13:17.265Z,1002.50
2022-11-20T09:14:17.234Z,1002.52
2022-11-20T09:15:17.267Z,1002.52
2022-11-20T09:16:17.253Z,1002.51
2022-11-20T09:17:17.250Z,1002.50
2022-11-20T09:18:17.337Z,1002.47
2022-11-20T09:20:17.194Z,1002.44
2022-11-20T09:21:17.270Z,1002.44
2022-11-20T09:22:17.427Z,1002.44
2022-11-20T09:23:17.200Z,1002.43
2022-11-20T09:24:17.123Z,1002.42
2022-11-20T09:25:17.127Z,1002.40
2022-11-20T09:26:17.206Z,1002.41
2022-11-20T09:27:17.096Z,1002.38
2022-11-20T09:28:17.102Z,1002.35
2022-11-20T09:29:17.080Z,1002.37
2022-11-20T09:30:17.151Z,1002.41
2022-11-20T09:31:17.053Z,1002.41
2022-11-20T09:32:17.054Z,1002.43
2022-11-20T09:33:17.028Z,1002.44
2022-11-20T09:34:17.068Z,1002.45
2022-11-20T09:35:17.089Z,1002.46
2022-11-20T09:36:17.102Z,1002.45
2022-11-20T09:37:17.030Z,1002.42
2022-11-20T09:38:17.008Z,1002.43
2022-11-20T09:39:16.975Z,1002.43
2022-11-20T09:40:17.004Z,1002.39
2022-11-20T09:41:16.973Z,1002.39
2022-11-20T09:42:16.998Z,1002.38
2022-11-20T09:43:16.966Z,1002.35
2022-11-20T09:44:16.957Z,1002.36
2022-11-20T09:45:17.018Z,1002.39
2022-11-20T09:46:18.059Z,1002.40
2022-11-20T09:47:16.902Z,1002.38
2022-11-20T09:48:17.632Z,1002.39
2022-11-20T09:49:16.904Z,1002.41
2022-11-20T09:50:16.945Z,1002.41
2022-11-20T09:51:16.930Z,1002.43
2022-11-20T09:52:16.863Z,1002.44
2022-11-20T09:53:16.896Z,1002.45
2022-11-20T09:54:16.897Z,1002.46
2022-11-20T09:55:16.846Z,1002.46
2022-11-20T09:56:18.378Z,1002.47
2022-11-20T09:57:16.784Z,1002.47
2022-11-20T09:58:17.667Z,1002.45
2022-11-20T09:59:16.912Z,1002.42
2022-11-20T10:00:18.208Z,1002.40
2022-11-20T10:01:16.910Z,1002.40
2022-11-20T10:02:17.874Z,1002.41
2022-11-20T10:03:16.740Z,1002.42
2022-11-20T10:04:16.733Z,1002.44
2022-11-20T10:05:16.758Z,1002.43
2022-11-20T10:06:16.871Z,1002.41
2022-11-20T10:07:31.834Z,1002.39
2022-11-20T10:08:16.803Z,1002.39
2022-11-20T10:09:16.677Z,1002.40
2022-11-20T10:10:16.766Z,1002.40
2022-11-20T10:11:16.662Z,1002.40
2022-11-20T10:12:16.644Z,1002.41
2022-11-20T10:13:16.665Z,1002.43
2022-11-20T10:14:16.687Z,1002.42
2022-11-20T10:15:16.647Z,1002.40
2022-11-20T10:16:16.690Z,1002.37
2022-11-20T10:17:16.598Z,1002.33
2022-11-20T10:18:16.667Z,1002.30
2022-11-20T10:19:16.561Z,1002.27
2022-11-20T10:20:17.070Z,1002.26
2022-11-20T10:21:16.714Z,1002.23
2022-11-20T10:22:16.587Z,1002.22
2022-11-20T10:23:19.213Z,1002.20
2022-11-20T10:24:16.566Z,1002.17
2022-11-20T10:25:16.568Z,1002.16
2022-11-20T10:26:16.541Z,1002.15
2022-11-20T10:27:16.627Z,1002.14
2022-11-20T10:28:16.537Z,1002.13
2022-11-20T10:29:16.527Z,1002.12
2022-11-20T10:30:16.550Z,1002.12
2022-11-20T10:31:16.439Z,1002.10
2022-11-20T10:32:16.525Z,1002.10
2022-11-20T10:33:16.434Z,1002.10
2022-11-20T10:34:22.373Z,1002.09
2022-11-20T10:35:16.415Z,1002.11
2022-11-20T10:36:16.517Z,1002.10
2022-11-20T10:37:16.407Z,1002.10
2022-11-20T10:38:16.492Z,1002.08
2022-11-20T10:39:16.386Z,1002.05
2022-11-20T10:40:16.548Z,1002.01
2022-11-20T10:41:16.396Z,1001.97
2022-11-20T10:42:16.363Z,1001.96
2022-11-20T10:43:16.322Z,1001.96
2022-11-20T10:44:16.621Z,1001.96
2022-11-20T10:45:16.381Z,1001.94
2022-11-20T10:46:16.341Z,1001.93
2022-11-20T10:47:16.400Z,1001.93
2022-11-20T10:48:16.353Z,1001.92
2022-11-20T10:49:16.301Z,1001.91
2022-11-20T10:50:21.847Z,1001.90
2022-11-20T10:51:16.320Z,1001.89
2022-11-20T10:52:16.267Z,1001.86
2022-11-20T10:53:16.254Z,1001.84
2022-11-20T10:54:16.243Z,1001.84
2022-11-20T10:55:16.305Z,1001.85
2022-11-20T10:56:16.295Z,1001.88
2022-11-20T10:57:16.208Z,1001.92
2022-11-20T10:58:16.207Z,1001.93
2022-11-20T10:59:16.279Z,1001.92
2022-11-20T11:00:16.303Z,1001.92
2022-11-20T11:01:16.277Z,1001.93
2022-11-20T11:02:16.174Z,1001.92
2022-11-20T11:03:16.203Z,1001.90
2022-11-20T11:04:16.144Z,1001.89
2022-11-20T11:05:16.200Z,1001.87
2022-11-20T11:06:16.120Z,1001.85
2022-11-20T11:07:16.235Z,1001.84
2022-11-20T11:08:16.176Z,1001.83
2022-11-20T11:09:16.117Z,1001.83
2022-11-20T11:10:16.099Z,1001.83
2022-11-20T11:11:16.135Z,1001.82
2022-11-20T11:12:16.050Z,1001.80
2022-11-20T11:13:16.078Z,1001.80
2022-11-20T11:14:16.094Z,1001.78
2022-11-20T11:15:16.021Z,1001.78
2022-11-20T11:16:16.021Z,1001.80
2022-11-20T11:17:16.019Z,1001.80
2022-11-20T11:18:15.998Z,1001.78
2022-11-20T11:19:15.996Z,1001.77
2022-11-20T11:20:15.989Z,1001.74
2022-11-20T11:21:15.992Z,1001.73
2022-11-20T11:22:15.979Z,1001.71
2022-11-20T11:23:16.291Z,1001.69
2022-11-20T11:24:40.446Z,1001.67
2022-11-20T11:25:15.938Z,1001.66
2022-11-20T11:26:15.907Z,1001.64
2022-11-20T11:27:17.507Z,1001.63
2022-11-20T11:28:15.888Z,1001.61
2022-11-20T11:29:15.906Z,1001.61
2022-11-20T11:30:15.913Z,1001.60
2022-11-20T11:31:15.901Z,1001.60
2022-11-20T11:32:15.923Z,1001.59
2022-11-20T11:33:15.839Z,1001.60
2022-11-20T11:34:15.995Z,1001.59
2022-11-20T11:35:15.841Z,1001.55
2022-11-20T11:36:15.856Z,1001.54
2022-11-20T11:37:15.803Z,1001.56
2022-11-20T11:38:15.800Z,1001.55
2022-11-20T11:39:15.835Z,1001.55
2022-11-20T11:40:23.992Z,1001.55
2022-11-20T11:41:15.786Z,1001.54
2022-11-20T11:42:15.807Z,1001.53
2022-11-20T11:43:15.802Z,1001.54
2022-11-20T11:44:15.800Z,1001.56
2022-11-20T11:45:15.728Z,1001.56
2022-11-20T11:46:15.868Z,1001.54
2022-11-20T11:47:16.622Z,1001.51
2022-11-20T11:48:15.751Z,1001.50
2022-11-20T11:49:15.739Z,1001.49
2022-11-20T11:50:15.772Z,1001.46
2022-11-20T11:51:15.662Z,1001.45
2022-11-20T11:52:15.711Z,1001.44
2022-11-20T11:53:15.660Z,1001.42
2022-11-20T11:54:15.668Z,1001.40
2022-11-20T11:55:15.658Z,1001.37
2022-11-20T11:56:15.653Z,1001.35
2022-11-20T11:57:15.614Z,1001.35
2022-11-20T11:58:15.688Z,1001.36
2022-11-20T11:59:15.683Z,1001.35
2022-11-20T12:00:15.602Z,1001.33
2022-11-20T12:01:15.639Z,1001.31
2022-11-20T12:02:15.654Z,1001.30
2022-11-20T12:03:15.580Z,1001.29
2022-11-20T12:04:15.638Z,1001.28
2022-11-20T12:05:15.611Z,1001.29
2022-11-20T12:06:15.575Z,1001.30